ENKR/KKN METAR and TAF weather

Enter ICAO airport designator
Station Type Date Time Source
ENKR METAR 2021/05/17 22:50 UTC NOAA

ENKR 172250Z AUTO 00000KT 9999 NCD 05/04 Q1012 RMK WIND 731FT 06005KT


Station Type Date Time Source
ENKR Decoded METAR 2021/05/17 22:50 UTC NOAA

Kirkenes Lufthavn, Norway (ENKR) 69-44N 029-54E 91M
May 17, 2021 - 06:50 PM EDT / 2021.05.17 2250 UTC
Wind: Calm:0
Visibility: greater than 7 mile(s):0
Temperature: 41 F (5 C)
Dew Point: 39 F (4 C)
Relative Humidity: 93%
Pressure (altimeter): 29.88 in. Hg (1012 hPa)
ob: ENKR 172250Z AUTO 00000KT 9999 NCD 05/04 Q1012 RMK WIND 731FT 06005KT
cycle: 23

Station Type Date Time Source
ENKR TAF 2017/08/31 21:36 UTC NOAA

TAF TAF ENKR 312300Z 3121/0109 29005KT 9999 FEW020 SCT040

Example: see airport list